sensor_id;sensor_type;location;lat;lon;timestamp;P1;durP1;ratioP1;P2;durP2;ratioP2
85829;SDS011;76277;49.212;16.680;2024-02-26T00:01:12;38.30;;;34.00;;
85829;SDS011;76277;49.212;16.680;2024-02-26T00:03:57;38.30;;;34.00;;
85829;SDS011;76277;49.212;16.680;2024-02-26T00:06:43;38.30;;;34.00;;
85829;SDS011;76277;49.212;16.680;2024-02-26T00:09:26;48.00;;;42.70;;
85829;SDS011;76277;49.212;16.680;2024-02-26T00:12:11;48.00;;;42.70;;
85829;SDS011;76277;49.212;16.680;2024-02-26T00:14:56;48.00;;;42.70;;
85829;SDS011;76277;49.212;16.680;2024-02-26T00:17:40;48.00;;;42.70;;
85829;SDS011;76277;49.212;16.680;2024-02-26T00:20:24;48.00;;;42.70;;
85829;SDS011;76277;49.212;16.680;2024-02-26T00:23:09;46.80;;;41.60;;
85829;SDS011;76277;49.212;16.680;2024-02-26T00:25:54;46.80;;;41.60;;
85829;SDS011;76277;49.212;16.680;2024-02-26T00:28:39;46.80;;;41.60;;
85829;SDS011;76277;49.212;16.680;2024-02-26T00:31:23;46.80;;;41.60;;
85829;SDS011;76277;49.212;16.680;2024-02-26T00:34:08;46.80;;;41.60;;
85829;SDS011;76277;49.212;16.680;2024-02-26T00:36:53;46.80;;;41.60;;
85829;SDS011;76277;49.212;16.680;2024-02-26T00:39:37;45.40;;;40.30;;
85829;SDS011;76277;49.212;16.680;2024-02-26T00:42:22;45.40;;;40.30;;
85829;SDS011;76277;49.212;16.680;2024-02-26T00:45:07;45.40;;;40.30;;
85829;SDS011;76277;49.212;16.680;2024-02-26T00:47:51;45.40;;;40.30;;
85829;SDS011;76277;49.212;16.680;2024-02-26T00:50:36;45.40;;;40.30;;
85829;SDS011;76277;49.212;16.680;2024-02-26T00:53:21;42.40;;;37.70;;
85829;SDS011;76277;49.212;16.680;2024-02-26T00:56:05;42.40;;;37.70;;
85829;SDS011;76277;49.212;16.680;2024-02-26T00:58:50;42.40;;;37.70;;
85829;SDS011;76277;49.212;16.680;2024-02-26T01:01:34;42.40;;;37.70;;
85829;SDS011;76277;49.212;16.680;2024-02-26T01:04:19;42.40;;;37.70;;
85829;SDS011;76277;49.212;16.680;2024-02-26T01:07:04;42.40;;;37.70;;
85829;SDS011;76277;49.212;16.680;2024-02-26T01:09:49;47.10;;;41.80;;
85829;SDS011;76277;49.212;16.680;2024-02-26T01:12:33;47.10;;;41.80;;
85829;SDS011;76277;49.212;16.680;2024-02-26T01:15:18;47.10;;;41.80;;
85829;SDS011;76277;49.212;16.680;2024-02-26T01:18:03;47.10;;;41.80;;
85829;SDS011;76277;49.212;16.680;2024-02-26T01:20:47;47.10;;;41.80;;
85829;SDS011;76277;49.212;16.680;2024-02-26T01:23:32;39.80;;;35.40;;
85829;SDS011;76277;49.212;16.680;2024-02-26T01:26:17;39.80;;;35.40;;
85829;SDS011;76277;49.212;16.680;2024-02-26T01:29:03;39.80;;;35.40;;
85829;SDS011;76277;49.212;16.680;2024-02-26T01:31:46;39.80;;;35.40;;
85829;SDS011;76277;49.212;16.680;2024-02-26T01:34:31;39.80;;;35.40;;
85829;SDS011;76277;49.212;16.680;2024-02-26T01:37:15;39.80;;;35.40;;
85829;SDS011;76277;49.212;16.680;2024-02-26T01:40:00;42.60;;;37.90;;
85829;SDS011;76277;49.212;16.680;2024-02-26T01:42:45;42.60;;;37.90;;
85829;SDS011;76277;49.212;16.680;2024-02-26T01:45:29;42.60;;;37.90;;
85829;SDS011;76277;49.212;16.680;2024-02-26T01:48:14;42.60;;;37.90;;
85829;SDS011;76277;49.212;16.680;2024-02-26T01:50:58;42.60;;;37.90;;
85829;SDS011;76277;49.212;16.680;2024-02-26T01:53:43;40.60;;;36.10;;
85829;SDS011;76277;49.212;16.680;2024-02-26T01:56:28;40.60;;;36.10;;
85829;SDS011;76277;49.212;16.680;2024-02-26T01:59:13;40.60;;;36.10;;
85829;SDS011;76277;49.212;16.680;2024-02-26T02:01:58;40.60;;;36.10;;
85829;SDS011;76277;49.212;16.680;2024-02-26T02:04:43;40.60;;;36.10;;
85829;SDS011;76277;49.212;16.680;2024-02-26T02:07:27;40.60;;;36.10;;
85829;SDS011;76277;49.212;16.680;2024-02-26T02:10:12;43.60;;;38.70;;
85829;SDS011;76277;49.212;16.680;2024-02-26T02:12:56;43.60;;;38.70;;
85829;SDS011;76277;49.212;16.680;2024-02-26T02:15:40;43.60;;;38.70;;
85829;SDS011;76277;49.212;16.680;2024-02-26T02:18:25;43.60;;;38.70;;
85829;SDS011;76277;49.212;16.680;2024-02-26T02:21:10;43.60;;;38.70;;
85829;SDS011;76277;49.212;16.680;2024-02-26T02:23:55;35.10;;;31.20;;
85829;SDS011;76277;49.212;16.680;2024-02-26T02:26:39;35.10;;;31.20;;
85829;SDS011;76277;49.212;16.680;2024-02-26T02:29:24;35.10;;;31.20;;
85829;SDS011;76277;49.212;16.680;2024-02-26T02:32:09;35.10;;;31.20;;
85829;SDS011;76277;49.212;16.680;2024-02-26T02:34:53;35.10;;;31.20;;
85829;SDS011;76277;49.212;16.680;2024-02-26T02:37:38;35.10;;;31.20;;
85829;SDS011;76277;49.212;16.680;2024-02-26T02:40:23;34.30;;;30.50;;
85829;SDS011;76277;49.212;16.680;2024-02-26T02:43:07;34.30;;;30.50;;
85829;SDS011;76277;49.212;16.680;2024-02-26T02:45:52;34.30;;;30.50;;
85829;SDS011;76277;49.212;16.680;2024-02-26T02:48:37;34.30;;;30.50;;
85829;SDS011;76277;49.212;16.680;2024-02-26T02:51:21;34.30;;;30.50;;
85829;SDS011;76277;49.212;16.680;2024-02-26T02:54:06;34.20;;;30.40;;
85829;SDS011;76277;49.212;16.680;2024-02-26T02:56:50;34.20;;;30.40;;
85829;SDS011;76277;49.212;16.680;2024-02-26T02:59:35;34.20;;;30.40;;
85829;SDS011;76277;49.212;16.680;2024-02-26T03:02:20;34.20;;;30.40;;
85829;SDS011;76277;49.212;16.680;2024-02-26T03:05:05;34.20;;;30.40;;
85829;SDS011;76277;49.212;16.680;2024-02-26T03:07:49;36.90;;;32.80;;
85829;SDS011;76277;49.212;16.680;2024-02-26T03:10:34;36.90;;;32.80;;
85829;SDS011;76277;49.212;16.680;2024-02-26T03:13:19;36.90;;;32.80;;
85829;SDS011;76277;49.212;16.680;2024-02-26T03:16:04;36.90;;;32.80;;
85829;SDS011;76277;49.212;16.680;2024-02-26T03:18:48;36.90;;;32.80;;
85829;SDS011;76277;49.212;16.680;2024-02-26T03:21:32;36.90;;;32.80;;
85829;SDS011;76277;49.212;16.680;2024-02-26T03:24:17;37.00;;;32.80;;
85829;SDS011;76277;49.212;16.680;2024-02-26T03:27:02;37.00;;;32.80;;
85829;SDS011;76277;49.212;16.680;2024-02-26T03:29:46;37.00;;;32.80;;
85829;SDS011;76277;49.212;16.680;2024-02-26T03:32:31;37.00;;;32.80;;
85829;SDS011;76277;49.212;16.680;2024-02-26T03:35:16;37.00;;;32.80;;
85829;SDS011;76277;49.212;16.680;2024-02-26T03:38:01;41.10;;;36.50;;
85829;SDS011;76277;49.212;16.680;2024-02-26T03:40:45;41.10;;;36.50;;
85829;SDS011;76277;49.212;16.680;2024-02-26T03:43:30;41.10;;;36.50;;
85829;SDS011;76277;49.212;16.680;2024-02-26T03:46:14;41.10;;;36.50;;
85829;SDS011;76277;49.212;16.680;2024-02-26T03:48:59;41.10;;;36.50;;
85829;SDS011;76277;49.212;16.680;2024-02-26T03:51:44;41.10;;;36.50;;
85829;SDS011;76277;49.212;16.680;2024-02-26T03:54:28;38.70;;;34.40;;
85829;SDS011;76277;49.212;16.680;2024-02-26T03:57:13;38.70;;;34.40;;
85829;SDS011;76277;49.212;16.680;2024-02-26T04:00:03;38.70;;;34.40;;
85829;SDS011;76277;49.212;16.680;2024-02-26T04:02:42;38.70;;;34.40;;
85829;SDS011;76277;49.212;16.680;2024-02-26T04:05:27;38.70;;;34.40;;
85829;SDS011;76277;49.212;16.680;2024-02-26T04:08:12;45.50;;;40.50;;
85829;SDS011;76277;49.212;16.680;2024-02-26T04:10:57;45.50;;;40.50;;
85829;SDS011;76277;49.212;16.680;2024-02-26T04:13:41;45.50;;;40.50;;
85829;SDS011;76277;49.212;16.680;2024-02-26T04:16:26;45.50;;;40.50;;
85829;SDS011;76277;49.212;16.680;2024-02-26T04:19:10;45.50;;;40.50;;
85829;SDS011;76277;49.212;16.680;2024-02-26T04:21:55;45.50;;;40.50;;
85829;SDS011;76277;49.212;16.680;2024-02-26T04:24:42;46.50;;;41.30;;
85829;SDS011;76277;49.212;16.680;2024-02-26T04:27:25;46.50;;;41.30;;
85829;SDS011;76277;49.212;16.680;2024-02-26T04:30:10;46.50;;;41.30;;
85829;SDS011;76277;49.212;16.680;2024-02-26T04:32:54;46.50;;;41.30;;
85829;SDS011;76277;49.212;16.680;2024-02-26T04:35:39;46.50;;;41.30;;
85829;SDS011;76277;49.212;16.680;2024-02-26T04:38:23;46.40;;;41.20;;
85829;SDS011;76277;49.212;16.680;2024-02-26T04:41:08;46.40;;;41.20;;
85829;SDS011;76277;49.212;16.680;2024-02-26T04:43:52;46.40;;;41.20;;
85829;SDS011;76277;49.212;16.680;2024-02-26T04:46:37;46.40;;;41.20;;
85829;SDS011;76277;49.212;16.680;2024-02-26T04:49:22;46.40;;;41.20;;
85829;SDS011;76277;49.212;16.680;2024-02-26T04:52:06;46.40;;;41.20;;
85829;SDS011;76277;49.212;16.680;2024-02-26T04:54:51;35.10;;;31.20;;
85829;SDS011;76277;49.212;16.680;2024-02-26T04:57:36;35.10;;;31.20;;
85829;SDS011;76277;49.212;16.680;2024-02-26T05:00:20;35.10;;;31.20;;
85829;SDS011;76277;49.212;16.680;2024-02-26T05:03:05;35.10;;;31.20;;
85829;SDS011;76277;49.212;16.680;2024-02-26T05:05:50;35.10;;;31.20;;
85829;SDS011;76277;49.212;16.680;2024-02-26T05:08:34;41.30;;;36.70;;
85829;SDS011;76277;49.212;16.680;2024-02-26T05:11:19;41.30;;;36.70;;
85829;SDS011;76277;49.212;16.680;2024-02-26T05:14:04;41.30;;;36.70;;
85829;SDS011;76277;49.212;16.680;2024-02-26T05:16:48;41.30;;;36.70;;
85829;SDS011;76277;49.212;16.680;2024-02-26T05:19:33;41.30;;;36.70;;
85829;SDS011;76277;49.212;16.680;2024-02-26T05:22:17;41.30;;;36.70;;
85829;SDS011;76277;49.212;16.680;2024-02-26T05:25:03;39.70;;;35.30;;
85829;SDS011;76277;49.212;16.680;2024-02-26T05:27:47;39.70;;;35.30;;
85829;SDS011;76277;49.212;16.680;2024-02-26T05:30:32;39.70;;;35.30;;
85829;SDS011;76277;49.212;16.680;2024-02-26T05:33:16;39.70;;;35.30;;
85829;SDS011;76277;49.212;16.680;2024-02-26T05:36:01;39.70;;;35.30;;
85829;SDS011;76277;49.212;16.680;2024-02-26T05:38:45;38.80;;;34.50;;
85829;SDS011;76277;49.212;16.680;2024-02-26T05:41:30;38.80;;;34.50;;
85829;SDS011;76277;49.212;16.680;2024-02-26T05:44:15;38.80;;;34.50;;
85829;SDS011;76277;49.212;16.680;2024-02-26T05:47:00;38.80;;;34.50;;
85829;SDS011;76277;49.212;16.680;2024-02-26T05:49:44;38.80;;;34.50;;
85829;SDS011;76277;49.212;16.680;2024-02-26T05:52:29;38.80;;;34.50;;
85829;SDS011;76277;49.212;16.680;2024-02-26T05:55:14;36.70;;;32.60;;
85829;SDS011;76277;49.212;16.680;2024-02-26T05:57:58;36.70;;;32.60;;
85829;SDS011;76277;49.212;16.680;2024-02-26T06:00:44;36.70;;;32.60;;
85829;SDS011;76277;49.212;16.680;2024-02-26T06:03:27;36.70;;;32.60;;
85829;SDS011;76277;49.212;16.680;2024-02-26T06:06:12;36.70;;;32.60;;
85829;SDS011;76277;49.212;16.680;2024-02-26T06:08:57;32.60;;;29.00;;
85829;SDS011;76277;49.212;16.680;2024-02-26T06:11:42;32.60;;;29.00;;
85829;SDS011;76277;49.212;16.680;2024-02-26T06:14:26;32.60;;;29.00;;
85829;SDS011;76277;49.212;16.680;2024-02-26T06:17:11;32.60;;;29.00;;
85829;SDS011;76277;49.212;16.680;2024-02-26T06:19:56;32.60;;;29.00;;
85829;SDS011;76277;49.212;16.680;2024-02-26T06:22:40;32.60;;;29.00;;
85829;SDS011;76277;49.212;16.680;2024-02-26T06:25:25;38.30;;;34.10;;
85829;SDS011;76277;49.212;16.680;2024-02-26T06:28:10;38.30;;;34.10;;
85829;SDS011;76277;49.212;16.680;2024-02-26T06:33:39;38.30;;;34.10;;
85829;SDS011;76277;49.212;16.680;2024-02-26T06:36:24;38.30;;;34.10;;
85829;SDS011;76277;49.212;16.680;2024-02-26T06:39:08;35.10;;;31.20;;
85829;SDS011;76277;49.212;16.680;2024-02-26T06:41:53;35.10;;;31.20;;
85829;SDS011;76277;49.212;16.680;2024-02-26T06:44:38;35.10;;;31.20;;
85829;SDS011;76277;49.212;16.680;2024-02-26T06:47:22;35.10;;;31.20;;
85829;SDS011;76277;49.212;16.680;2024-02-26T06:50:07;35.10;;;31.20;;
85829;SDS011;76277;49.212;16.680;2024-02-26T06:52:51;35.10;;;31.20;;
85829;SDS011;76277;49.212;16.680;2024-02-26T06:55:36;26.20;;;23.30;;
85829;SDS011;76277;49.212;16.680;2024-02-26T06:58:21;26.20;;;23.30;;
85829;SDS011;76277;49.212;16.680;2024-02-26T07:01:06;26.20;;;23.30;;
85829;SDS011;76277;49.212;16.680;2024-02-26T07:03:50;26.20;;;23.30;;
85829;SDS011;76277;49.212;16.680;2024-02-26T07:06:35;26.20;;;23.30;;
85829;SDS011;76277;49.212;16.680;2024-02-26T07:09:19;27.20;;;24.20;;
85829;SDS011;76277;49.212;16.680;2024-02-26T07:12:05;27.20;;;24.20;;
85829;SDS011;76277;49.212;16.680;2024-02-26T07:14:49;27.20;;;24.20;;
85829;SDS011;76277;49.212;16.680;2024-02-26T07:17:33;27.20;;;24.20;;
85829;SDS011;76277;49.212;16.680;2024-02-26T07:20:18;27.20;;;24.20;;
85829;SDS011;76277;49.212;16.680;2024-02-26T07:23:03;27.20;;;24.20;;
85829;SDS011;76277;49.212;16.680;2024-02-26T07:25:47;28.40;;;25.30;;
85829;SDS011;76277;49.212;16.680;2024-02-26T07:28:32;28.40;;;25.30;;
85829;SDS011;76277;49.212;16.680;2024-02-26T07:31:17;28.40;;;25.30;;
85829;SDS011;76277;49.212;16.680;2024-02-26T07:34:02;28.40;;;25.30;;
85829;SDS011;76277;49.212;16.680;2024-02-26T07:36:46;28.40;;;25.30;;
85829;SDS011;76277;49.212;16.680;2024-02-26T07:39:31;27.10;;;24.10;;
85829;SDS011;76277;49.212;16.680;2024-02-26T07:42:16;27.10;;;24.10;;
85829;SDS011;76277;49.212;16.680;2024-02-26T07:45:01;27.10;;;24.10;;
85829;SDS011;76277;49.212;16.680;2024-02-26T07:47:45;27.10;;;24.10;;
85829;SDS011;76277;49.212;16.680;2024-02-26T07:50:30;27.10;;;24.10;;
85829;SDS011;76277;49.212;16.680;2024-02-26T07:53:14;27.10;;;24.10;;
85829;SDS011;76277;49.212;16.680;2024-02-26T07:55:59;22.60;;;20.10;;
85829;SDS011;76277;49.212;16.680;2024-02-26T07:58:43;22.60;;;20.10;;
85829;SDS011;76277;49.212;16.680;2024-02-26T08:01:28;22.60;;;20.10;;
85829;SDS011;76277;49.212;16.680;2024-02-26T08:04:14;22.60;;;20.10;;
85829;SDS011;76277;49.212;16.680;2024-02-26T08:06:57;22.60;;;20.10;;
85829;SDS011;76277;49.212;16.680;2024-02-26T08:09:42;21.50;;;19.10;;
85829;SDS011;76277;49.212;16.680;2024-02-26T08:12:27;21.50;;;19.10;;
85829;SDS011;76277;49.212;16.680;2024-02-26T08:15:11;21.50;;;19.10;;
85829;SDS011;76277;49.212;16.680;2024-02-26T08:17:57;21.50;;;19.10;;
85829;SDS011;76277;49.212;16.680;2024-02-26T08:20:41;21.50;;;19.10;;
85829;SDS011;76277;49.212;16.680;2024-02-26T08:23:26;21.50;;;19.10;;
85829;SDS011;76277;49.212;16.680;2024-02-26T08:26:10;18.30;;;16.20;;
85829;SDS011;76277;49.212;16.680;2024-02-26T08:28:55;18.30;;;16.20;;
85829;SDS011;76277;49.212;16.680;2024-02-26T08:31:39;18.30;;;16.20;;
85829;SDS011;76277;49.212;16.680;2024-02-26T08:34:24;18.30;;;16.20;;
85829;SDS011;76277;49.212;16.680;2024-02-26T08:37:09;18.30;;;16.20;;
85829;SDS011;76277;49.212;16.680;2024-02-26T08:39:53;16.60;;;14.80;;
85829;SDS011;76277;49.212;16.680;2024-02-26T08:42:38;16.60;;;14.80;;
85829;SDS011;76277;49.212;16.680;2024-02-26T08:45:25;16.60;;;14.80;;
85829;SDS011;76277;49.212;16.680;2024-02-26T08:48:07;16.60;;;14.80;;
85829;SDS011;76277;49.212;16.680;2024-02-26T08:50:52;16.60;;;14.80;;
85829;SDS011;76277;49.212;16.680;2024-02-26T08:53:37;16.60;;;14.80;;
85829;SDS011;76277;49.212;16.680;2024-02-26T08:56:21;11.80;;;10.50;;
85829;SDS011;76277;49.212;16.680;2024-02-26T08:59:06;11.80;;;10.50;;
85829;SDS011;76277;49.212;16.680;2024-02-26T09:01:51;11.80;;;10.50;;
85829;SDS011;76277;49.212;16.680;2024-02-26T09:04:38;11.80;;;10.50;;
85829;SDS011;76277;49.212;16.680;2024-02-26T09:07:20;11.80;;;10.50;;
85829;SDS011;76277;49.212;16.680;2024-02-26T09:10:05;14.50;;;12.90;;
85829;SDS011;76277;49.212;16.680;2024-02-26T09:12:50;14.50;;;12.90;;
85829;SDS011;76277;49.212;16.680;2024-02-26T09:15:35;14.50;;;12.90;;
85829;SDS011;76277;49.212;16.680;2024-02-26T09:18:19;14.50;;;12.90;;
85829;SDS011;76277;49.212;16.680;2024-02-26T09:21:04;14.50;;;12.90;;
85829;SDS011;76277;49.212;16.680;2024-02-26T09:23:49;14.50;;;12.90;;
85829;SDS011;76277;49.212;16.680;2024-02-26T09:26:33;11.60;;;10.30;;
85829;SDS011;76277;49.212;16.680;2024-02-26T09:29:17;11.60;;;10.30;;
85829;SDS011;76277;49.212;16.680;2024-02-26T09:32:02;11.60;;;10.30;;
85829;SDS011;76277;49.212;16.680;2024-02-26T09:34:47;11.60;;;10.30;;
85829;SDS011;76277;49.212;16.680;2024-02-26T09:37:31;11.60;;;10.30;;
85829;SDS011;76277;49.212;16.680;2024-02-26T09:40:16;12.60;;;11.20;;
85829;SDS011;76277;49.212;16.680;2024-02-26T09:43:02;12.60;;;11.20;;
85829;SDS011;76277;49.212;16.680;2024-02-26T09:45:46;12.60;;;11.20;;
85829;SDS011;76277;49.212;16.680;2024-02-26T09:48:31;12.60;;;11.20;;
85829;SDS011;76277;49.212;16.680;2024-02-26T09:51:16;12.60;;;11.20;;
85829;SDS011;76277;49.212;16.680;2024-02-26T09:53:59;12.60;;;11.20;;
85829;SDS011;76277;49.212;16.680;2024-02-26T09:56:47;10.70;;;9.50;;
85829;SDS011;76277;49.212;16.680;2024-02-26T09:59:29;10.70;;;9.50;;
85829;SDS011;76277;49.212;16.680;2024-02-26T10:02:14;10.70;;;9.50;;
85829;SDS011;76277;49.212;16.680;2024-02-26T10:04:59;10.70;;;9.50;;
85829;SDS011;76277;49.212;16.680;2024-02-26T10:07:44;10.70;;;9.50;;
85829;SDS011;76277;49.212;16.680;2024-02-26T10:10:28;9.70;;;8.60;;
85829;SDS011;76277;49.212;16.680;2024-02-26T10:13:12;9.70;;;8.60;;
85829;SDS011;76277;49.212;16.680;2024-02-26T10:15:57;9.70;;;8.60;;
85829;SDS011;76277;49.212;16.680;2024-02-26T10:18:49;9.70;;;8.60;;
85829;SDS011;76277;49.212;16.680;2024-02-26T10:21:26;9.70;;;8.60;;
85829;SDS011;76277;49.212;16.680;2024-02-26T10:24:13;9.70;;;8.60;;
85829;SDS011;76277;49.212;16.680;2024-02-26T10:26:56;8.20;;;7.30;;
85829;SDS011;76277;49.212;16.680;2024-02-26T10:29:40;8.20;;;7.30;;
85829;SDS011;76277;49.212;16.680;2024-02-26T10:32:24;8.20;;;7.30;;
85829;SDS011;76277;49.212;16.680;2024-02-26T10:35:10;8.20;;;7.30;;
85829;SDS011;76277;49.212;16.680;2024-02-26T10:37:54;8.20;;;7.30;;
85829;SDS011;76277;49.212;16.680;2024-02-26T10:40:40;9.50;;;8.50;;
85829;SDS011;76277;49.212;16.680;2024-02-26T10:43:25;9.50;;;8.50;;
85829;SDS011;76277;49.212;16.680;2024-02-26T10:46:08;9.50;;;8.50;;
85829;SDS011;76277;49.212;16.680;2024-02-26T10:48:54;9.50;;;8.50;;
85829;SDS011;76277;49.212;16.680;2024-02-26T10:51:38;9.50;;;8.50;;
85829;SDS011;76277;49.212;16.680;2024-02-26T10:54:25;9.50;;;8.50;;
85829;SDS011;76277;49.212;16.680;2024-02-26T10:57:08;7.10;;;6.30;;
85829;SDS011;76277;49.212;16.680;2024-02-26T10:59:51;7.10;;;6.30;;
85829;SDS011;76277;49.212;16.680;2024-02-26T11:02:36;7.10;;;6.30;;
85829;SDS011;76277;49.212;16.680;2024-02-26T11:05:21;7.10;;;6.30;;
85829;SDS011;76277;49.212;16.680;2024-02-26T11:08:06;7.10;;;6.30;;
85829;SDS011;76277;49.212;16.680;2024-02-26T11:10:53;5.20;;;4.60;;
85829;SDS011;76277;49.212;16.680;2024-02-26T11:13:36;5.20;;;4.60;;
85829;SDS011;76277;49.212;16.680;2024-02-26T11:16:21;5.20;;;4.60;;
85829;SDS011;76277;49.212;16.680;2024-02-26T11:19:06;5.20;;;4.60;;
85829;SDS011;76277;49.212;16.680;2024-02-26T11:21:49;5.20;;;4.60;;
85829;SDS011;76277;49.212;16.680;2024-02-26T11:24:34;5.20;;;4.60;;
85829;SDS011;76277;49.212;16.680;2024-02-26T11:27:19;5.20;;;4.60;;
85829;SDS011;76277;49.212;16.680;2024-02-26T11:30:04;5.20;;;4.60;;
85829;SDS011;76277;49.212;16.680;2024-02-26T11:32:47;5.20;;;4.60;;
85829;SDS011;76277;49.212;16.680;2024-02-26T11:35:32;5.20;;;4.60;;
85829;SDS011;76277;49.212;16.680;2024-02-26T11:38:20;5.20;;;4.60;;
85829;SDS011;76277;49.212;16.680;2024-02-26T11:41:01;7.30;;;6.50;;
85829;SDS011;76277;49.212;16.680;2024-02-26T11:43:50;7.30;;;6.50;;
85829;SDS011;76277;49.212;16.680;2024-02-26T11:46:32;7.30;;;6.50;;
85829;SDS011;76277;49.212;16.680;2024-02-26T11:49:30;7.30;;;6.50;;
85829;SDS011;76277;49.212;16.680;2024-02-26T11:52:00;7.30;;;6.50;;
85829;SDS011;76277;49.212;16.680;2024-02-26T11:54:46;7.30;;;6.50;;
85829;SDS011;76277;49.212;16.680;2024-02-26T11:57:39;7.30;;;6.50;;
85829;SDS011;76277;49.212;16.680;2024-02-26T12:00:15;7.30;;;6.50;;
85829;SDS011;76277;49.212;16.680;2024-02-26T12:03:00;7.30;;;6.50;;
85829;SDS011;76277;49.212;16.680;2024-02-26T12:05:43;7.30;;;6.50;;
85829;SDS011;76277;49.212;16.680;2024-02-26T12:08:29;7.30;;;6.50;;
85829;SDS011;76277;49.212;16.680;2024-02-26T12:11:14;7.40;;;6.50;;
85829;SDS011;76277;49.212;16.680;2024-02-26T12:13:57;7.40;;;6.50;;
85829;SDS011;76277;49.212;16.680;2024-02-26T12:16:42;7.40;;;6.50;;
85829;SDS011;76277;49.212;16.680;2024-02-26T12:19:27;7.40;;;6.50;;
85829;SDS011;76277;49.212;16.680;2024-02-26T12:22:12;7.40;;;6.50;;
85829;SDS011;76277;49.212;16.680;2024-02-26T12:24:58;4.50;;;4.00;;
85829;SDS011;76277;49.212;16.680;2024-02-26T12:27:40;4.50;;;4.00;;
85829;SDS011;76277;49.212;16.680;2024-02-26T12:30:25;4.50;;;4.00;;
85829;SDS011;76277;49.212;16.680;2024-02-26T12:33:10;4.50;;;4.00;;
85829;SDS011;76277;49.212;16.680;2024-02-26T12:35:55;4.50;;;4.00;;
85829;SDS011;76277;49.212;16.680;2024-02-26T12:38:39;4.50;;;4.00;;
85829;SDS011;76277;49.212;16.680;2024-02-26T12:41:24;3.30;;;3.00;;
85829;SDS011;76277;49.212;16.680;2024-02-26T12:44:08;3.30;;;3.00;;
85829;SDS011;76277;49.212;16.680;2024-02-26T12:46:59;3.30;;;3.00;;
85829;SDS011;76277;49.212;16.680;2024-02-26T12:49:38;3.30;;;3.00;;
85829;SDS011;76277;49.212;16.680;2024-02-26T12:52:23;3.30;;;3.00;;
85829;SDS011;76277;49.212;16.680;2024-02-26T12:55:07;3.50;;;3.10;;
85829;SDS011;76277;49.212;16.680;2024-02-26T12:57:53;3.50;;;3.10;;
85829;SDS011;76277;49.212;16.680;2024-02-26T13:00:37;3.50;;;3.10;;
85829;SDS011;76277;49.212;16.680;2024-02-26T13:03:22;3.50;;;3.10;;
85829;SDS011;76277;49.212;16.680;2024-02-26T13:06:07;3.50;;;3.10;;
85829;SDS011;76277;49.212;16.680;2024-02-26T13:08:56;3.50;;;3.10;;
85829;SDS011;76277;49.212;16.680;2024-02-26T13:11:35;3.20;;;2.90;;
85829;SDS011;76277;49.212;16.680;2024-02-26T13:14:20;3.20;;;2.90;;
85829;SDS011;76277;49.212;16.680;2024-02-26T13:17:04;3.20;;;2.90;;
85829;SDS011;76277;49.212;16.680;2024-02-26T13:19:54;3.20;;;2.90;;
85829;SDS011;76277;49.212;16.680;2024-02-26T13:22:34;3.20;;;2.90;;
85829;SDS011;76277;49.212;16.680;2024-02-26T13:25:20;3.30;;;2.90;;
85829;SDS011;76277;49.212;16.680;2024-02-26T13:28:06;3.30;;;2.90;;
85829;SDS011;76277;49.212;16.680;2024-02-26T13:30:51;3.30;;;2.90;;
85829;SDS011;76277;49.212;16.680;2024-02-26T13:33:33;3.30;;;2.90;;
85829;SDS011;76277;49.212;16.680;2024-02-26T13:36:17;3.30;;;2.90;;
85829;SDS011;76277;49.212;16.680;2024-02-26T13:39:02;3.30;;;2.90;;
85829;SDS011;76277;49.212;16.680;2024-02-26T13:41:46;2.10;;;1.90;;
85829;SDS011;76277;49.212;16.680;2024-02-26T13:44:31;2.10;;;1.90;;
85829;SDS011;76277;49.212;16.680;2024-02-26T13:47:16;2.10;;;1.90;;
85829;SDS011;76277;49.212;16.680;2024-02-26T13:50:01;2.10;;;1.90;;
85829;SDS011;76277;49.212;16.680;2024-02-26T13:52:45;2.10;;;1.90;;
85829;SDS011;76277;49.212;16.680;2024-02-26T13:55:30;2.80;;;2.50;;
85829;SDS011;76277;49.212;16.680;2024-02-26T13:58:14;2.80;;;2.50;;
85829;SDS011;76277;49.212;16.680;2024-02-26T14:00:59;2.80;;;2.50;;
85829;SDS011;76277;49.212;16.680;2024-02-26T14:03:44;2.80;;;2.50;;
85829;SDS011;76277;49.212;16.680;2024-02-26T14:06:28;2.80;;;2.50;;
85829;SDS011;76277;49.212;16.680;2024-02-26T14:09:14;2.80;;;2.50;;
85829;SDS011;76277;49.212;16.680;2024-02-26T14:11:58;4.70;;;4.20;;
85829;SDS011;76277;49.212;16.680;2024-02-26T14:14:42;4.70;;;4.20;;
85829;SDS011;76277;49.212;16.680;2024-02-26T14:17:27;4.70;;;4.20;;
85829;SDS011;76277;49.212;16.680;2024-02-26T14:20:13;4.70;;;4.20;;
85829;SDS011;76277;49.212;16.680;2024-02-26T14:22:56;4.70;;;4.20;;
85829;SDS011;76277;49.212;16.680;2024-02-26T14:25:41;4.20;;;3.80;;
85829;SDS011;76277;49.212;16.680;2024-02-26T14:28:26;4.20;;;3.80;;
85829;SDS011;76277;49.212;16.680;2024-02-26T14:31:10;4.20;;;3.80;;
85829;SDS011;76277;49.212;16.680;2024-02-26T14:33:55;4.20;;;3.80;;
85829;SDS011;76277;49.212;16.680;2024-02-26T14:36:40;4.20;;;3.80;;
85829;SDS011;76277;49.212;16.680;2024-02-26T14:39:24;4.20;;;3.80;;
85829;SDS011;76277;49.212;16.680;2024-02-26T14:42:09;4.70;;;4.20;;
85829;SDS011;76277;49.212;16.680;2024-02-26T14:44:54;4.70;;;4.20;;
85829;SDS011;76277;49.212;16.680;2024-02-26T14:47:38;4.70;;;4.20;;
85829;SDS011;76277;49.212;16.680;2024-02-26T14:50:23;4.70;;;4.20;;
85829;SDS011;76277;49.212;16.680;2024-02-26T14:53:08;4.70;;;4.20;;
85829;SDS011;76277;49.212;16.680;2024-02-26T14:55:52;4.00;;;3.60;;
85829;SDS011;76277;49.212;16.680;2024-02-26T14:58:37;4.00;;;3.60;;
85829;SDS011;76277;49.212;16.680;2024-02-26T15:01:23;4.00;;;3.60;;
85829;SDS011;76277;49.212;16.680;2024-02-26T15:04:06;4.00;;;3.60;;
85829;SDS011;76277;49.212;16.680;2024-02-26T15:06:51;4.00;;;3.60;;
85829;SDS011;76277;49.212;16.680;2024-02-26T15:09:37;4.00;;;3.60;;
85829;SDS011;76277;49.212;16.680;2024-02-26T15:12:20;4.30;;;3.80;;
85829;SDS011;76277;49.212;16.680;2024-02-26T15:15:05;4.30;;;3.80;;
85829;SDS011;76277;49.212;16.680;2024-02-26T15:17:50;4.30;;;3.80;;
85829;SDS011;76277;49.212;16.680;2024-02-26T15:20:34;4.30;;;3.80;;
85829;SDS011;76277;49.212;16.680;2024-02-26T15:23:19;4.30;;;3.80;;
85829;SDS011;76277;49.212;16.680;2024-02-26T15:26:04;3.50;;;3.10;;
85829;SDS011;76277;49.212;16.680;2024-02-26T15:28:48;3.50;;;3.10;;
85829;SDS011;76277;49.212;16.680;2024-02-26T15:31:33;3.50;;;3.10;;
85829;SDS011;76277;49.212;16.680;2024-02-26T15:34:18;3.50;;;3.10;;
85829;SDS011;76277;49.212;16.680;2024-02-26T15:37:02;3.50;;;3.10;;
85829;SDS011;76277;49.212;16.680;2024-02-26T15:39:47;3.50;;;3.10;;
85829;SDS011;76277;49.212;16.680;2024-02-26T15:42:32;3.70;;;3.30;;
85829;SDS011;76277;49.212;16.680;2024-02-26T15:45:16;3.70;;;3.30;;
85829;SDS011;76277;49.212;16.680;2024-02-26T15:48:01;3.70;;;3.30;;
85829;SDS011;76277;49.212;16.680;2024-02-26T15:50:46;3.70;;;3.30;;
85829;SDS011;76277;49.212;16.680;2024-02-26T15:53:31;3.70;;;3.30;;
85829;SDS011;76277;49.212;16.680;2024-02-26T15:56:15;6.10;;;5.40;;
85829;SDS011;76277;49.212;16.680;2024-02-26T15:58:59;6.10;;;5.40;;
85829;SDS011;76277;49.212;16.680;2024-02-26T16:01:45;6.10;;;5.40;;